createdAt,value
2023-04-19T00:05:04.035Z,11.20
2023-04-19T00:10:12.442Z,11.10
2023-04-19T00:15:21.555Z,11.00
2023-04-19T00:20:30.262Z,10.90
2023-04-19T00:25:39.204Z,10.90
2023-04-19T00:30:47.899Z,10.80
2023-04-19T00:35:56.614Z,10.80
2023-04-19T00:41:05.176Z,10.70
2023-04-19T00:46:14.262Z,10.70
2023-04-19T00:51:22.429Z,10.70
2023-04-19T00:56:30.975Z,10.70
2023-04-19T01:01:39.595Z,10.70
2023-04-19T01:06:48.136Z,10.60
2023-04-19T01:11:56.691Z,10.60
2023-04-19T01:17:05.656Z,10.50
2023-04-19T01:22:14.350Z,10.50
2023-04-19T01:27:23.326Z,10.40
2023-04-19T01:32:32.058Z,10.30
2023-04-19T01:37:41.044Z,10.30
2023-04-19T01:42:49.687Z,10.30
2023-04-19T01:47:58.545Z,10.30
2023-04-19T01:53:07.338Z,10.10
2023-04-19T01:58:16.299Z,10.10
2023-04-19T02:03:25.222Z,10.00
2023-04-19T02:08:33.755Z,9.90
2023-04-19T02:13:42.239Z,9.90
2023-04-19T02:18:51.155Z,9.90
2023-04-19T02:23:59.467Z,9.90
2023-04-19T02:29:08.449Z,9.80
2023-04-19T02:34:17.196Z,9.80
2023-04-19T02:39:26.067Z,9.80
2023-04-19T02:44:34.652Z,9.80
2023-04-19T02:49:43.603Z,9.70
2023-04-19T02:54:52.352Z,9.70
2023-04-19T03:00:01.088Z,9.70
2023-04-19T03:05:09.727Z,9.70
2023-04-19T03:10:18.612Z,9.70
2023-04-19T03:15:27.233Z,9.70
2023-04-19T03:20:36.053Z,9.70
2023-04-19T03:25:44.769Z,9.70
2023-04-19T03:30:53.774Z,9.70
2023-04-19T03:36:02.372Z,9.70
2023-04-19T03:41:11.663Z,9.80
2023-04-19T03:46:20.472Z,9.80
2023-04-19T03:51:29.209Z,9.80
2023-04-19T03:56:37.854Z,9.90
2023-04-19T04:01:47.180Z,10.00
2023-04-19T04:06:55.774Z,10.00
2023-04-19T04:12:04.825Z,10.20
2023-04-19T04:17:13.692Z,10.30
2023-04-19T04:22:22.766Z,10.40
2023-04-19T04:27:31.295Z,10.50
2023-04-19T04:32:40.288Z,10.60
2023-04-19T04:37:48.890Z,10.70
2023-04-19T04:42:57.895Z,10.90
2023-04-19T04:48:06.677Z,11.00
2023-04-19T04:53:15.382Z,11.20
2023-04-19T04:58:24.136Z,11.30
2023-04-19T05:03:32.848Z,11.50
2023-04-19T05:08:41.463Z,11.60
